Weather at Zürich Airport

Public forecast

Using degrees Celsius for public forecast. Weather courtesy of forecast.io.

Current aviation weather report (METAR) for Zürich Airport

Retrieved 2020/10/26 23:20 UTC (15 minutes ago):

LSZH 262320Z 13003KT 9999 FEW017 05/04 Q1011 NOSIG

Aviation forecast (TAF) for Zürich Airport

Retrieved 2020/10/26 21:34 UTC (2 hours ago):

TAF LSZH 262025Z 2621/2803 14007KT 9999 SCT020 TX13/2714Z TN04/2703Z PROB40 2703/2707 3500 MIFG TEMPO 2709/2715 23007KT BECMG 2712/2714 CAVOK BECMG 2720/2722 9999 SCT070 PROB30 2722/2803 RA BKN050